Pagrindinis puslapis
METAR-TAF:

METAR-TAF

Oro uostai :

Río Hato, Panama

platuma: 08-22-33N, ilguma: 080-07-40W, Aukštis: 32 m

Dabartinis oras

Ataskaita buvo paskelbta 47 minutes, ne 16:00 UTC
Vėjas 8 kt iš Pietų/Pietryčių
Temperatūra 30°C
Drėgmė 70%
Slėgis 1012 hPa
Matomumas: 9000 m
Išsisklaidę debesys ne aukštis 2000 ft

METAR: MPSM 231600Z 16008KT 9000 SCT020 30/24 Q1012

Laikas: 11:47 (16:47 UTC)

Prognozė

Ataskaita buvo paskelbta 5 valandos ir 47 minutes, ne 11:00 UTC
Prognozė galioja nuo 23 metu 12 UTC su 24 metu 18 UTC
Vėjas 6 kt iš Šiaurės/Šiaurės Vakarų
Matomumas 10 km arba daugiau
Išsisklaidę debesys ne aukštis 1800 ft
Išsisklaidę debesys ne aukštis 9000 ft
Tikimybė 30%
nuo 23 metu 18 UTC su 23 metu 22 UTC
Vėjas 8 kt iš Pietų/Pietryčių
Matomumas: 7000 m
Išsisklaidę debesys ne aukštis 1700 ft, Liūtiniai kamuoliniai debesys.
Su prošvaistėmis ne aukštis 8000 ft
perkūnija, lietus

TAF: MPSM 231100Z 2312/2418 34006KT 9999 SCT018 SCT090 PROB30 2318/2322 15008KT 7000 TSRA SCT017CB BKN080

Orai ataskaitas ir orų prognozės (METAR, TAF).

turimą stotys yra geltonos ir raudonos taškus žemėlapyje.

Perkelti pele per norėdami pamatyti stoties vardą.

Tada spustelėkite, norėdami matyti oro stebėjimo ir prognozės.

Norėdami pakeisti žemėlapį: spustelėkite ant žalios mygtukų su juodo kryžiaus žemyn,; žalią mygtuką su brūkšneliu, jei norite nutolinti; arba žalių rodyklių gretimoms žemėlapius.


METAR-TAF: